createdAt,value
2023-10-17T00:03:21.341Z,100448.95
2023-10-17T00:08:23.383Z,100450.99
2023-10-17T00:13:30.854Z,100448.92
2023-10-17T00:18:32.269Z,100446.38
2023-10-17T00:23:35.330Z,100445.70
2023-10-17T00:28:36.883Z,100446.89
2023-10-17T00:33:42.250Z,100446.16
2023-10-17T00:38:44.333Z,100441.69
2023-10-17T00:43:45.733Z,100440.40
2023-10-17T00:48:48.700Z,100444.68
2023-10-17T00:53:50.952Z,100449.27
2023-10-17T00:58:52.333Z,100448.48
2023-10-17T01:03:55.493Z,100450.55
2023-10-17T01:14:33.118Z,100447.45
2023-10-17T01:19:36.298Z,100449.73
2023-10-17T01:24:41.452Z,100448.42
2023-10-17T01:29:44.766Z,100451.98
2023-10-17T01:34:47.861Z,100454.16
2023-10-17T01:39:49.294Z,100455.00
2023-10-17T01:44:51.947Z,100457.25
2023-10-17T01:49:53.307Z,100457.90
2023-10-17T01:54:54.732Z,100460.14
2023-10-17T01:59:56.210Z,100460.67
2023-10-17T02:04:58.744Z,100465.81
2023-10-17T02:10:01.547Z,100470.11
2023-10-17T02:15:06.953Z,100467.20
2023-10-17T02:20:19.031Z,100464.77
2023-10-17T02:25:22.772Z,100462.66
2023-10-17T02:30:25.045Z,100465.07
2023-10-17T02:35:41.808Z,100467.80
2023-10-17T02:40:51.814Z,100463.83
2023-10-17T02:45:54.153Z,100464.19
2023-10-17T02:51:03.832Z,100473.14
2023-10-17T02:56:18.922Z,100471.61
2023-10-17T03:01:23.252Z,100468.36
2023-10-17T03:06:24.804Z,100476.95
2023-10-17T03:11:48.018Z,100476.30
2023-10-17T03:16:53.567Z,100476.54
2023-10-17T03:22:00.571Z,100477.86
2023-10-17T03:27:04.757Z,100473.01
2023-10-17T03:32:12.064Z,100471.38
2023-10-17T03:37:25.570Z,100475.90
2023-10-17T03:42:31.052Z,100478.02
2023-10-17T03:47:32.631Z,100475.63
2023-10-17T03:52:34.396Z,100475.52
2023-10-17T03:57:40.138Z,100478.48
2023-10-17T04:02:42.476Z,100486.58
2023-10-17T04:07:52.486Z,100491.52
2023-10-17T04:13:13.851Z,100493.88
2023-10-17T04:18:15.697Z,100493.81
2023-10-17T04:23:21.982Z,100492.33
2023-10-17T04:28:26.760Z,100497.04
2023-10-17T04:33:29.578Z,100502.32
2023-10-17T04:38:37.323Z,100506.48
2023-10-17T04:43:44.768Z,100508.92
2023-10-17T04:48:48.806Z,100512.69
2023-10-17T04:53:52.501Z,100519.77
2023-10-17T04:58:57.407Z,100530.11
2023-10-17T05:03:59.515Z,100533.16
2023-10-17T05:09:02.706Z,100534.77
2023-10-17T05:14:23.174Z,100535.69
2023-10-17T05:19:43.452Z,100543.48
2023-10-17T05:25:05.014Z,100546.95
2023-10-17T05:30:27.790Z,100554.95
2023-10-17T05:35:47.852Z,100562.82
2023-10-17T05:41:08.028Z,100569.52
2023-10-17T05:46:28.369Z,100572.01
2023-10-17T05:51:49.733Z,100570.23
2023-10-17T05:57:10.135Z,100577.20
2023-10-17T06:02:30.261Z,100575.11
2023-10-17T06:07:50.268Z,100579.55
2023-10-17T06:13:10.628Z,100578.23
2023-10-17T06:18:19.023Z,100586.41
2023-10-17T06:23:39.474Z,100592.12
2023-10-17T06:28:47.168Z,100588.10
2023-10-17T06:33:53.232Z,100582.48
2023-10-17T06:38:55.601Z,100592.44
2023-10-17T06:44:05.980Z,100596.95
2023-10-17T06:49:28.398Z,100598.00
2023-10-17T06:54:32.032Z,100601.80
2023-10-17T06:59:36.899Z,100608.27
2023-10-17T07:04:38.647Z,100612.41
2023-10-17T07:09:40.750Z,100615.14
2023-10-17T07:14:48.215Z,100616.73
2023-10-17T07:19:59.454Z,100614.80
2023-10-17T07:25:02.927Z,100616.25
2023-10-17T07:30:13.696Z,100611.38
2023-10-17T07:35:26.011Z,100616.37
2023-10-17T07:40:33.999Z,100623.25
2023-10-17T07:45:42.209Z,100623.30
2023-10-17T07:50:43.950Z,100623.42
2023-10-17T07:55:49.788Z,100630.11
2023-10-17T08:00:51.321Z,100634.76
2023-10-17T08:06:05.888Z,100639.54
2023-10-17T08:11:14.807Z,100640.21
2023-10-17T08:16:25.681Z,100645.67
2023-10-17T08:21:33.230Z,100641.79
2023-10-17T08:26:40.980Z,100639.59
2023-10-17T08:31:45.548Z,100642.23
2023-10-17T08:36:50.368Z,100643.44
2023-10-17T08:41:54.047Z,100645.20
2023-10-17T08:46:56.817Z,100648.05
2023-10-17T08:51:58.937Z,100649.84
2023-10-17T08:57:02.035Z,100648.27
2023-10-17T09:02:04.775Z,100646.70
2023-10-17T09:07:09.157Z,100650.43
2023-10-17T09:12:22.499Z,100649.52
2023-10-17T09:17:26.875Z,100646.88
2023-10-17T09:22:31.506Z,100642.17
2023-10-17T09:27:34.084Z,100643.99
2023-10-17T09:32:41.168Z,100642.34
2023-10-17T09:37:51.261Z,100640.23
2023-10-17T09:42:54.166Z,100639.08
2023-10-17T09:47:59.644Z,100639.77
2023-10-17T09:53:18.701Z,100632.59
2023-10-17T09:58:28.768Z,100630.10
2023-10-17T10:03:31.528Z,100629.68
2023-10-17T10:08:33.644Z,100626.95
2023-10-17T10:14:01.761Z,100624.38
2023-10-17T10:19:04.051Z,100619.90
2023-10-17T10:24:18.589Z,100614.55
2023-10-17T10:29:24.445Z,100601.58
2023-10-17T10:34:26.709Z,100596.87
2023-10-17T10:39:28.310Z,100591.02
2023-10-17T10:44:30.474Z,100590.63
2023-10-17T10:49:32.373Z,100579.19
2023-10-17T10:54:51.265Z,100572.54
2023-10-17T10:59:53.001Z,100560.65
2023-10-17T11:04:56.836Z,100545.17
2023-10-17T11:10:07.521Z,100539.43
2023-10-17T11:15:16.267Z,100535.81
2023-10-17T11:20:19.481Z,100532.55
2023-10-17T11:25:27.070Z,100522.91
2023-10-17T11:30:55.560Z,100526.63
2023-10-17T11:36:03.421Z,100521.42
2023-10-17T11:41:05.649Z,100521.55
2023-10-17T11:46:13.541Z,100523.08
2023-10-17T11:51:18.714Z,100511.77
2023-10-17T11:56:21.525Z,100514.23
2023-10-17T12:01:23.760Z,100511.77
2023-10-17T12:06:29.228Z,100514.06
2023-10-17T12:11:31.219Z,100515.04
2023-10-17T12:16:34.796Z,100515.11
2023-10-17T12:21:36.477Z,100506.92
2023-10-17T12:26:38.073Z,100502.48
2023-10-17T12:31:41.158Z,100500.20
2023-10-17T12:36:46.820Z,100490.81
2023-10-17T12:41:49.773Z,100499.31
2023-10-17T12:46:51.420Z,100503.02
2023-10-17T12:51:54.013Z,100500.13
2023-10-17T12:56:55.663Z,100493.54
2023-10-17T13:01:57.638Z,100489.23
2023-10-17T13:06:59.275Z,100489.22
2023-10-17T13:12:01.187Z,100481.04
2023-10-17T13:17:03.857Z,100476.35
2023-10-17T13:22:09.223Z,100476.60
2023-10-17T13:32:19.334Z,100459.33
2023-10-17T13:37:20.903Z,100457.73
2023-10-17T13:42:23.706Z,100451.05
2023-10-17T13:47:26.404Z,100440.82
2023-10-17T13:52:29.196Z,100435.33
2023-10-17T13:57:32.440Z,100432.06
2023-10-17T14:02:36.125Z,100435.73
2023-10-17T14:07:40.181Z,100432.25
2023-10-17T14:12:42.614Z,100428.25
2023-10-17T14:17:47.251Z,100423.19
2023-10-17T14:23:11.942Z,100422.98
2023-10-17T14:28:13.504Z,100429.92
2023-10-17T14:33:15.656Z,100422.11
2023-10-17T14:38:17.185Z,100422.85
2023-10-17T14:43:18.731Z,100420.96
2023-10-17T14:48:21.259Z,100425.73
2023-10-17T14:53:29.242Z,100420.40
2023-10-17T14:58:37.626Z,100424.48
2023-10-17T15:03:39.333Z,100417.10
2023-10-17T15:08:41.374Z,100412.09
2023-10-17T15:13:43.166Z,100409.77
2023-10-17T15:18:45.622Z,100414.64
2023-10-17T15:23:48.063Z,100411.34
2023-10-17T15:28:49.503Z,100409.86
2023-10-17T15:33:51.268Z,100413.98
2023-10-17T15:38:53.933Z,100411.42
2023-10-17T15:43:55.404Z,100408.99
2023-10-17T15:48:56.884Z,100402.09
2023-10-17T15:53:58.341Z,100396.79
2023-10-17T15:58:59.785Z,100400.77
2023-10-17T16:04:01.763Z,100400.33
2023-10-17T16:09:03.422Z,100397.84
2023-10-17T16:14:04.880Z,100396.98
2023-10-17T16:19:07.686Z,100396.98
2023-10-17T16:24:09.430Z,100390.71
2023-10-17T16:29:11.238Z,100393.09
2023-10-17T16:34:15.221Z,100392.08
2023-10-17T16:39:16.680Z,100391.02
2023-10-17T16:44:18.211Z,100388.85
2023-10-17T16:49:21.300Z,100392.25
2023-10-17T16:54:23.639Z,100392.89
2023-10-17T16:59:27.342Z,100386.83
2023-10-17T17:04:32.149Z,100384.95
2023-10-17T17:09:34.002Z,100385.79
2023-10-17T17:14:37.164Z,100387.41
2023-10-17T17:19:39.012Z,100384.09
2023-10-17T17:24:40.661Z,100384.12
2023-10-17T17:29:42.345Z,100378.69
2023-10-17T17:34:44.458Z,100373.81
2023-10-17T17:39:46.956Z,100371.06
2023-10-17T17:44:48.484Z,100367.80
2023-10-17T17:49:50.119Z,100367.59
2023-10-17T17:54:52.305Z,100369.45
2023-10-17T17:59:53.942Z,100361.89
2023-10-17T18:04:55.413Z,100361.66
2023-10-17T18:09:57.475Z,100358.96
2023-10-17T18:15:00.146Z,100357.52
2023-10-17T18:20:02.161Z,100349.23
2023-10-17T18:25:04.417Z,100347.82
2023-10-17T18:30:09.750Z,100353.92
2023-10-17T18:35:11.542Z,100354.02
2023-10-17T18:40:13.690Z,100350.46
2023-10-17T18:45:16.786Z,100344.66
2023-10-17T18:50:18.779Z,100345.29
2023-10-17T18:55:21.095Z,100337.35
2023-10-17T19:00:23.863Z,100326.70
2023-10-17T19:05:25.465Z,100328.56
2023-10-17T19:10:27.954Z,100331.48
2023-10-17T19:15:29.504Z,100338.20
2023-10-17T19:20:31.780Z,100344.88
2023-10-17T19:25:33.195Z,100339.67
2023-10-17T19:30:38.171Z,100332.00
2023-10-17T19:35:39.635Z,100322.29
2023-10-17T19:40:41.190Z,100316.01
2023-10-17T19:45:42.971Z,100313.38
2023-10-17T19:50:44.881Z,100313.48
2023-10-17T19:55:48.475Z,100310.52
2023-10-17T20:00:50.409Z,100312.38
2023-10-17T20:05:52.851Z,100315.02
2023-10-17T20:11:01.593Z,100310.98
2023-10-17T20:16:07.334Z,100302.90
2023-10-17T20:21:11.158Z,100298.63
2023-10-17T20:26:12.626Z,100297.98
2023-10-17T20:31:27.227Z,100293.73
2023-10-17T20:36:30.195Z,100295.70
2023-10-17T20:41:34.290Z,100294.91
2023-10-17T20:46:36.224Z,100284.82
2023-10-17T20:51:39.344Z,100281.48
2023-10-17T20:56:42.700Z,100287.80
2023-10-17T21:01:44.609Z,100287.77
2023-10-17T21:06:46.639Z,100281.79
2023-10-17T21:11:48.437Z,100279.90
2023-10-17T21:16:49.950Z,100280.96
2023-10-17T21:21:53.064Z,100281.11
2023-10-17T21:26:54.637Z,100273.92
2023-10-17T21:31:56.431Z,100266.34
2023-10-17T21:36:58.124Z,100261.34
2023-10-17T21:42:00.231Z,100255.34
2023-10-17T21:47:02.997Z,100243.48
2023-10-17T21:52:04.865Z,100238.31
2023-10-17T21:57:06.686Z,100252.08
2023-10-17T22:02:09.149Z,100258.67
2023-10-17T22:07:11.504Z,100251.83
2023-10-17T22:12:13.159Z,100242.09
2023-10-17T22:17:15.548Z,100233.20
2023-10-17T22:22:17.052Z,100234.13
2023-10-17T22:27:19.380Z,100236.75
2023-10-17T22:32:20.865Z,100224.79
2023-10-17T22:37:22.333Z,100217.88
2023-10-17T22:42:23.918Z,100214.29
2023-10-17T22:47:25.392Z,100212.19
2023-10-17T22:52:26.967Z,100201.13
2023-10-17T22:57:28.413Z,100201.19
2023-10-17T23:02:29.875Z,100201.05
2023-10-17T23:07:31.706Z,100198.95
2023-10-17T23:12:34.786Z,100191.19
2023-10-17T23:17:36.333Z,100186.14
2023-10-17T23:22:38.252Z,100185.62
2023-10-17T23:27:41.317Z,100183.42
2023-10-17T23:32:47.280Z,100185.16
2023-10-17T23:37:50.631Z,100178.94
2023-10-17T23:42:52.060Z,100174.00
2023-10-17T23:47:55.477Z,100170.04
2023-10-17T23:52:57.484Z,100166.84
2023-10-17T23:57:58.926Z,100159.10
